createdAt,value
2022-11-03T00:00:12.788Z,14.54
2022-11-03T00:02:39.688Z,14.11
2022-11-03T00:05:26.375Z,14.19
2022-11-03T00:07:52.813Z,14.35
2022-11-03T00:10:19.520Z,14.26
2022-11-03T00:12:45.971Z,13.91
2022-11-03T00:15:12.473Z,14.25
2022-11-03T00:17:38.904Z,14.18
2022-11-03T00:20:05.908Z,14.20
2022-11-03T00:22:33.251Z,14.06
2022-11-03T00:25:00.068Z,13.68
2022-11-03T00:27:26.717Z,14.10
2022-11-03T00:29:53.226Z,13.61
2022-11-03T00:32:19.743Z,14.34
2022-11-03T00:34:46.149Z,13.77
2022-11-03T00:37:12.771Z,13.69
2022-11-03T00:39:39.231Z,14.01
2022-11-03T00:42:05.796Z,13.84
2022-11-03T00:44:32.316Z,13.70
2022-11-03T00:46:58.762Z,14.13
2022-11-03T00:49:25.613Z,14.39
2022-11-03T00:51:52.063Z,13.59
2022-11-03T00:54:18.504Z,14.05
2022-11-03T00:56:44.964Z,13.37
2022-11-03T00:59:11.409Z,14.12
2022-11-03T01:01:47.319Z,13.79
2022-11-03T01:04:36.677Z,14.12
2022-11-03T01:07:04.467Z,14.29
2022-11-03T01:09:36.560Z,14.02
2022-11-03T01:12:07.846Z,14.27
2022-11-03T01:14:43.113Z,14.35
2022-11-03T01:17:21.307Z,13.68
2022-11-03T01:19:47.983Z,13.81
2022-11-03T01:22:15.209Z,13.95
2022-11-03T01:24:42.263Z,13.84
2022-11-03T01:27:10.689Z,14.23
2022-11-03T01:29:37.132Z,13.43
2022-11-03T01:32:03.735Z,14.31
2022-11-03T01:34:30.460Z,13.89
2022-11-03T01:36:56.954Z,14.12
2022-11-03T01:39:23.467Z,13.33
2022-11-03T01:41:51.831Z,13.96
2022-11-03T01:44:18.621Z,14.19
2022-11-03T01:47:03.189Z,14.63
2022-11-03T01:49:35.602Z,14.84
2022-11-03T01:52:10.392Z,14.41
2022-11-03T01:54:38.186Z,14.91
2022-11-03T01:57:09.850Z,14.61
2022-11-03T01:59:36.441Z,15.04
2022-11-03T02:02:03.261Z,14.64
2022-11-03T02:04:32.748Z,13.94
2022-11-03T02:07:25.707Z,13.58
2022-11-03T02:09:52.188Z,14.25
2022-11-03T02:12:20.153Z,14.08
2022-11-03T02:14:55.510Z,13.70
2022-11-03T02:17:24.782Z,14.45
2022-11-03T02:20:01.438Z,14.12
2022-11-03T02:22:46.755Z,14.29
2022-11-03T02:25:47.003Z,13.41
2022-11-03T02:28:19.294Z,13.21
2022-11-03T02:31:07.773Z,13.62
2022-11-03T02:33:40.699Z,14.11
2022-11-03T02:36:12.982Z,13.63
2022-11-03T02:38:47.302Z,14.08
2022-11-03T02:41:16.143Z,13.57
2022-11-03T02:43:43.977Z,13.23
2022-11-03T02:46:12.153Z,13.31
2022-11-03T02:48:38.794Z,13.36
2022-11-03T02:51:05.362Z,13.58
2022-11-03T02:53:36.763Z,13.70
2022-11-03T02:56:09.376Z,13.46
2022-11-03T02:58:52.303Z,13.75
2022-11-03T03:01:29.304Z,12.95
2022-11-03T03:04:01.692Z,13.38
2022-11-03T03:06:34.875Z,13.09
2022-11-03T03:09:05.155Z,13.60
2022-11-03T03:11:38.690Z,13.56
2022-11-03T03:14:19.062Z,13.78
2022-11-03T03:17:01.755Z,13.90
2022-11-03T03:19:54.281Z,13.61
2022-11-03T03:22:41.207Z,13.90
2022-11-03T03:25:20.976Z,13.47
2022-11-03T03:27:54.130Z,12.96
2022-11-03T03:30:21.724Z,13.95
2022-11-03T03:32:49.831Z,13.83
2022-11-03T03:35:19.696Z,13.66
2022-11-03T03:37:48.728Z,13.82
2022-11-03T03:40:20.105Z,13.10
2022-11-03T03:42:47.683Z,14.17
2022-11-03T03:45:14.875Z,13.58
2022-11-03T03:47:41.506Z,13.69
2022-11-03T03:50:08.276Z,13.99
2022-11-03T03:52:36.050Z,13.99
2022-11-03T03:55:02.527Z,13.34
2022-11-03T03:57:30.704Z,14.17
2022-11-03T03:59:57.558Z,14.29
2022-11-03T04:02:24.288Z,14.00
2022-11-03T04:04:50.877Z,13.82
2022-11-03T04:07:40.818Z,13.69
2022-11-03T04:10:10.721Z,14.50
2022-11-03T04:12:55.926Z,14.23
2022-11-03T04:15:41.099Z,13.71
2022-11-03T04:18:26.683Z,14.05
2022-11-03T04:21:12.102Z,13.64
2022-11-03T04:23:38.966Z,13.77
2022-11-03T04:26:13.596Z,13.70
2022-11-03T04:28:41.191Z,14.20
2022-11-03T04:31:14.999Z,13.73
2022-11-03T04:33:42.332Z,13.73
2022-11-03T04:36:11.467Z,13.28
2022-11-03T04:38:38.149Z,13.91
2022-11-03T04:41:15.312Z,13.76
2022-11-03T04:43:42.699Z,13.84
2022-11-03T04:46:14.037Z,13.63
2022-11-03T04:48:44.105Z,13.94
2022-11-03T04:51:15.220Z,14.13
2022-11-03T04:53:46.602Z,13.62
2022-11-03T04:56:15.794Z,14.29
2022-11-03T04:58:42.256Z,13.83
2022-11-03T05:01:12.852Z,13.81
2022-11-03T05:03:41.359Z,14.13
2022-11-03T05:06:14.033Z,14.00
2022-11-03T05:08:44.236Z,14.41
2022-11-03T05:11:29.532Z,14.89
2022-11-03T05:13:59.579Z,14.60
2022-11-03T05:16:26.093Z,14.28
2022-11-03T05:18:52.700Z,14.38
2022-11-03T05:21:22.009Z,14.01
2022-11-03T05:23:51.169Z,14.00
2022-11-03T05:26:26.944Z,14.26
2022-11-03T05:29:20.155Z,14.53
2022-11-03T05:31:47.777Z,14.86
2022-11-03T05:34:26.571Z,15.12
2022-11-03T05:36:53.153Z,15.06
2022-11-03T05:39:34.425Z,15.36
2022-11-03T05:42:01.158Z,14.60
2022-11-03T05:44:37.294Z,14.94
2022-11-03T05:47:12.386Z,14.73
2022-11-03T05:49:40.677Z,14.83
2022-11-03T05:52:23.146Z,14.78
2022-11-03T05:54:50.148Z,13.96
2022-11-03T05:57:18.333Z,14.47
2022-11-03T05:59:46.916Z,14.46
2022-11-03T06:02:40.697Z,14.65
2022-11-03T06:05:19.204Z,14.43
2022-11-03T06:07:46.018Z,14.76
2022-11-03T06:10:19.238Z,14.54
2022-11-03T06:12:45.973Z,13.77
2022-11-03T06:15:25.351Z,14.10
2022-11-03T06:17:53.603Z,14.35
2022-11-03T06:20:22.007Z,14.60
2022-11-03T06:22:49.135Z,14.85
2022-11-03T06:25:36.769Z,15.09
2022-11-03T06:28:05.383Z,14.58
2022-11-03T06:30:36.591Z,14.90
2022-11-03T06:33:29.891Z,14.94
2022-11-03T06:36:03.751Z,15.51
2022-11-03T06:38:31.270Z,15.51
2022-11-03T06:40:58.347Z,15.09
2022-11-03T06:43:41.888Z,15.50
2022-11-03T06:46:19.806Z,15.06
2022-11-03T06:48:46.764Z,15.49
2022-11-03T06:51:22.345Z,15.71
2022-11-03T06:53:50.680Z,15.06
2022-11-03T06:56:21.460Z,15.04
2022-11-03T06:58:49.030Z,14.57
2022-11-03T07:01:18.800Z,15.00
2022-11-03T07:03:45.894Z,15.38
2022-11-03T07:06:26.224Z,15.06
2022-11-03T07:08:58.657Z,14.17
2022-11-03T07:11:46.536Z,14.48
2022-11-03T07:14:28.225Z,15.22
2022-11-03T07:16:56.225Z,14.66
2022-11-03T07:19:25.943Z,14.83
2022-11-03T07:22:01.108Z,15.46
2022-11-03T07:24:31.885Z,16.08
2022-11-03T07:27:14.137Z,16.00
2022-11-03T07:29:41.106Z,15.53
2022-11-03T07:32:22.552Z,15.32
2022-11-03T07:34:49.892Z,15.49
2022-11-03T07:37:21.729Z,15.62
2022-11-03T07:39:50.827Z,15.75
2022-11-03T07:42:22.439Z,16.13
2022-11-03T07:44:49.890Z,16.07
2022-11-03T07:47:20.612Z,16.51
2022-11-03T07:49:47.353Z,16.18
2022-11-03T07:52:20.305Z,15.49
2022-11-03T07:54:47.056Z,15.79
2022-11-03T07:57:23.258Z,15.45
2022-11-03T07:59:59.144Z,16.27
2022-11-03T08:02:31.607Z,15.44
2022-11-03T08:04:58.754Z,15.14
2022-11-03T08:07:25.590Z,15.78
2022-11-03T08:09:52.603Z,15.37
2022-11-03T08:12:20.358Z,15.78
2022-11-03T08:14:47.183Z,16.16
2022-11-03T08:17:14.763Z,16.47
2022-11-03T08:19:41.794Z,16.03
2022-11-03T08:22:08.362Z,16.62
2022-11-03T08:24:35.005Z,16.32
2022-11-03T08:27:03.422Z,16.16
2022-11-03T08:29:30.090Z,16.11
2022-11-03T08:31:56.663Z,15.58
2022-11-03T08:34:23.179Z,16.27
2022-11-03T08:36:49.705Z,17.05
2022-11-03T08:39:16.469Z,16.86
2022-11-03T08:41:42.969Z,16.74
2022-11-03T08:44:09.489Z,16.17
2022-11-03T08:46:36.311Z,16.82
2022-11-03T08:49:02.846Z,16.36
2022-11-03T08:51:29.330Z,17.29
2022-11-03T08:53:55.794Z,15.99
2022-11-03T08:56:22.879Z,16.29
2022-11-03T08:58:49.816Z,16.01
2022-11-03T09:01:16.473Z,16.29
2022-11-03T09:03:43.239Z,16.28
2022-11-03T09:06:09.840Z,16.21
2022-11-03T09:11:23.811Z,15.66
2022-11-03T09:13:50.321Z,16.28
2022-11-03T09:16:17.219Z,16.51
2022-11-03T09:18:43.861Z,16.31
2022-11-03T09:21:10.683Z,15.85
2022-11-03T09:23:37.203Z,16.93
2022-11-03T09:26:05.755Z,17.27
2022-11-03T09:28:32.854Z,17.00
2022-11-03T09:30:59.329Z,16.92
2022-11-03T09:33:25.843Z,17.20
2022-11-03T09:35:52.372Z,17.70
2022-11-03T09:38:19.052Z,17.29
2022-11-03T09:40:45.685Z,17.96
2022-11-03T09:43:12.189Z,19.42
2022-11-03T09:45:39.439Z,17.86
2022-11-03T09:48:10.320Z,19.38
2022-11-03T09:50:37.679Z,19.86
2022-11-03T09:53:04.501Z,20.19
2022-11-03T09:55:31.356Z,21.29
2022-11-03T09:58:01.500Z,20.23
2022-11-03T10:00:28.446Z,20.05
2022-11-03T10:02:55.622Z,19.77
2022-11-03T10:05:26.817Z,19.94
2022-11-03T10:07:57.761Z,20.24
2022-11-03T10:10:24.707Z,18.84
2022-11-03T10:12:53.135Z,18.48
2022-11-03T10:15:21.773Z,18.61
2022-11-03T10:17:50.490Z,18.85
2022-11-03T10:20:19.453Z,18.74
2022-11-03T10:22:46.866Z,18.29
2022-11-03T10:25:30.001Z,17.64
2022-11-03T10:28:14.335Z,17.47
2022-11-03T10:31:18.056Z,17.65
2022-11-03T10:33:55.286Z,17.85
2022-11-03T10:36:24.131Z,17.71
2022-11-03T10:38:50.864Z,17.05
2022-11-03T10:41:22.350Z,18.08
2022-11-03T10:44:04.808Z,17.45
2022-11-03T10:49:19.913Z,17.77
2022-11-03T10:51:52.278Z,17.69
2022-11-03T10:54:20.945Z,17.47
2022-11-03T10:56:48.142Z,17.26
2022-11-03T10:59:20.261Z,17.65
2022-11-03T11:01:47.213Z,17.48
2022-11-03T11:04:18.646Z,17.24
2022-11-03T11:06:46.307Z,17.75
2022-11-03T11:09:15.816Z,17.21
2022-11-03T11:12:06.831Z,17.48
2022-11-03T11:14:39.564Z,17.25
2022-11-03T11:17:06.466Z,16.98
2022-11-03T11:20:11.610Z,17.81
2022-11-03T11:22:38.067Z,17.17
2022-11-03T11:25:04.652Z,17.77
2022-11-03T11:27:37.078Z,17.84
2022-11-03T11:30:29.645Z,17.83
2022-11-03T11:33:01.496Z,17.03
2022-11-03T11:35:27.897Z,18.02
2022-11-03T11:37:54.629Z,17.87
2022-11-03T11:40:24.232Z,18.12
2022-11-03T11:43:03.007Z,17.73
2022-11-03T11:46:07.147Z,17.46
2022-11-03T11:48:34.523Z,18.05
2022-11-03T11:51:02.119Z,17.28
2022-11-03T11:53:32.751Z,16.89
2022-11-03T11:56:00.556Z,17.64
2022-11-03T11:58:53.608Z,18.11
2022-11-03T12:01:33.339Z,19.71
2022-11-03T12:04:08.610Z,19.90
2022-11-03T12:06:37.772Z,22.95
2022-11-03T12:09:05.959Z,25.84
2022-11-03T12:11:55.669Z,25.79
2022-11-03T12:14:28.788Z,25.63
2022-11-03T12:16:56.356Z,25.41
2022-11-03T12:19:36.739Z,23.45
2022-11-03T12:22:08.862Z,22.64
2022-11-03T12:24:38.264Z,21.98
2022-11-03T12:27:37.750Z,19.98
2022-11-03T12:30:12.979Z,20.19
2022-11-03T12:32:39.487Z,19.82
2022-11-03T12:35:08.598Z,20.20
2022-11-03T12:37:35.392Z,19.76
2022-11-03T12:40:01.921Z,19.54
2022-11-03T12:42:28.481Z,19.68
2022-11-03T12:44:55.896Z,20.00
2022-11-03T12:47:22.484Z,19.17
2022-11-03T12:49:49.771Z,19.78
2022-11-03T12:52:16.430Z,19.02
2022-11-03T12:54:42.903Z,19.42
2022-11-03T12:57:09.625Z,19.88
2022-11-03T12:59:36.399Z,19.91
2022-11-03T13:02:03.095Z,19.20
2022-11-03T13:04:29.656Z,19.54
2022-11-03T13:06:56.663Z,19.92
2022-11-03T13:09:23.181Z,20.17
2022-11-03T13:12:08.386Z,19.42
2022-11-03T13:14:34.857Z,19.25
2022-11-03T13:17:03.683Z,19.55
2022-11-03T13:19:31.272Z,19.39
2022-11-03T13:21:58.050Z,18.76
2022-11-03T13:24:24.571Z,19.28
2022-11-03T13:26:51.075Z,19.85
2022-11-03T13:29:17.620Z,20.00
2022-11-03T13:31:44.358Z,19.85
2022-11-03T13:34:10.815Z,20.36
2022-11-03T13:36:37.327Z,18.63
2022-11-03T13:39:04.022Z,19.21
2022-11-03T13:41:30.514Z,18.45
2022-11-03T13:43:57.053Z,18.24
2022-11-03T13:46:23.563Z,18.90
2022-11-03T13:49:44.670Z,18.56
2022-11-03T13:51:36.602Z,18.45
2022-11-03T13:59:36.155Z,18.28
2022-11-03T14:04:49.908Z,18.40
2022-11-03T14:07:16.390Z,18.65
2022-11-03T14:09:43.347Z,18.49
2022-11-03T14:12:28.446Z,17.98
2022-11-03T14:14:54.938Z,18.39
2022-11-03T14:17:21.507Z,18.01
2022-11-03T14:19:52.355Z,17.83
2022-11-03T14:22:23.871Z,18.27
2022-11-03T14:24:51.451Z,18.44
2022-11-03T14:27:19.371Z,17.83
2022-11-03T14:29:49.369Z,17.64
2022-11-03T14:32:16.913Z,17.34
2022-11-03T14:34:46.409Z,18.11
2022-11-03T14:37:13.415Z,17.20
2022-11-03T14:39:40.645Z,17.66
2022-11-03T14:42:15.214Z,17.40
2022-11-03T14:44:43.919Z,17.17
2022-11-03T14:47:15.472Z,16.64
2022-11-03T14:49:42.061Z,16.80
2022-11-03T14:52:08.752Z,17.16
2022-11-03T14:54:36.189Z,17.55
2022-11-03T14:57:03.510Z,16.88
2022-11-03T14:59:30.102Z,16.83
2022-11-03T15:01:57.324Z,17.13
2022-11-03T15:04:24.299Z,16.72
2022-11-03T15:06:50.826Z,16.83
2022-11-03T15:09:18.152Z,16.66
2022-11-03T15:11:45.306Z,16.46
2022-11-03T15:14:12.505Z,16.57
2022-11-03T15:16:39.984Z,17.10
2022-11-03T15:19:07.856Z,17.40
2022-11-03T15:21:34.972Z,16.57
2022-11-03T15:26:48.226Z,16.36
2022-11-03T15:29:14.742Z,16.22
2022-11-03T15:31:47.191Z,16.43
2022-11-03T15:34:15.378Z,16.14
2022-11-03T15:36:42.174Z,16.92
2022-11-03T15:39:08.772Z,16.40
2022-11-03T15:41:35.484Z,16.72
2022-11-03T15:44:02.018Z,15.85
2022-11-03T15:46:28.539Z,16.74
2022-11-03T15:48:56.576Z,16.46
2022-11-03T15:51:23.249Z,15.97
2022-11-03T15:53:53.577Z,16.22
2022-11-03T15:56:25.026Z,16.01
2022-11-03T15:58:51.573Z,15.61
2022-11-03T16:01:18.136Z,15.24
2022-11-03T16:03:44.840Z,15.81
2022-11-03T16:06:11.300Z,15.00
2022-11-03T16:08:38.161Z,14.68
2022-11-03T16:11:04.823Z,14.97
2022-11-03T16:13:31.918Z,14.62
2022-11-03T16:15:58.568Z,15.01
2022-11-03T16:18:25.191Z,14.97
2022-11-03T16:20:51.776Z,15.14
2022-11-03T16:23:18.258Z,15.32
2022-11-03T16:25:44.768Z,15.57
2022-11-03T16:28:11.375Z,15.71
2022-11-03T16:30:38.635Z,15.71
2022-11-03T16:33:05.470Z,15.97
2022-11-03T16:35:33.085Z,16.19
2022-11-03T16:37:59.793Z,15.36
2022-11-03T16:40:26.599Z,15.60
2022-11-03T16:42:53.176Z,15.63
2022-11-03T16:45:22.119Z,15.64
2022-11-03T16:47:49.982Z,15.58
2022-11-03T16:50:18.187Z,15.58
2022-11-03T16:52:45.905Z,15.16
2022-11-03T16:55:13.279Z,14.42
2022-11-03T16:57:39.790Z,14.10
2022-11-03T17:00:08.492Z,13.80
2022-11-03T17:02:35.111Z,13.83
2022-11-03T17:05:01.646Z,13.61
2022-11-03T17:07:28.288Z,12.59
2022-11-03T17:09:56.074Z,13.72
2022-11-03T17:12:22.794Z,13.04
2022-11-03T17:14:52.647Z,13.43
2022-11-03T17:17:22.226Z,13.55
2022-11-03T17:19:48.705Z,13.21
2022-11-03T17:22:15.242Z,13.18
2022-11-03T17:24:41.673Z,13.22
2022-11-03T17:27:14.436Z,13.00
2022-11-03T17:29:44.030Z,13.36
2022-11-03T17:32:29.214Z,13.49
2022-11-03T17:34:57.144Z,13.59
2022-11-03T17:37:25.461Z,12.59
2022-11-03T17:39:52.258Z,13.22
2022-11-03T17:42:26.213Z,13.65
2022-11-03T17:44:55.794Z,13.24
2022-11-03T17:47:23.419Z,13.58
2022-11-03T17:49:50.463Z,13.16
2022-11-03T17:52:24.921Z,13.46
2022-11-03T17:54:56.251Z,12.74
2022-11-03T17:57:23.336Z,12.87
2022-11-03T17:59:51.536Z,13.40
2022-11-03T18:02:20.597Z,13.56
2022-11-03T18:04:47.862Z,13.47
2022-11-03T18:07:26.109Z,13.16
2022-11-03T18:09:52.972Z,13.64
2022-11-03T18:12:43.326Z,13.85
2022-11-03T18:15:19.577Z,13.45
2022-11-03T18:17:46.829Z,13.48
2022-11-03T18:20:16.075Z,12.81
2022-11-03T18:22:42.577Z,13.01
2022-11-03T18:25:16.450Z,13.47
2022-11-03T18:27:43.967Z,13.82
2022-11-03T18:30:12.540Z,13.96
2022-11-03T18:32:40.349Z,13.71
2022-11-03T18:35:07.682Z,13.56
2022-11-03T18:37:34.352Z,13.63
2022-11-03T18:40:02.449Z,13.74
2022-11-03T18:42:29.502Z,13.59
2022-11-03T18:45:01.503Z,13.59
2022-11-03T18:47:29.276Z,13.61
2022-11-03T18:49:55.765Z,13.52
2022-11-03T18:52:22.338Z,13.30
2022-11-03T18:54:50.325Z,13.55
2022-11-03T18:57:21.837Z,13.60
2022-11-03T18:59:48.556Z,13.84
2022-11-03T19:02:18.157Z,13.66
2022-11-03T19:04:45.579Z,13.92
2022-11-03T19:07:31.650Z,13.55
2022-11-03T19:09:59.535Z,13.82
2022-11-03T19:12:27.296Z,13.22
2022-11-03T19:14:54.117Z,13.36
2022-11-03T19:17:23.413Z,13.63
2022-11-03T19:19:52.198Z,13.16
2022-11-03T19:22:22.889Z,13.92
2022-11-03T19:24:49.429Z,14.05
2022-11-03T19:27:22.868Z,13.79
2022-11-03T19:29:49.526Z,13.39
2022-11-03T19:32:22.007Z,13.53
2022-11-03T19:34:54.769Z,13.85
2022-11-03T19:37:21.235Z,13.95
2022-11-03T19:39:48.478Z,13.66
2022-11-03T19:42:29.352Z,14.02
2022-11-03T19:45:00.247Z,13.85
2022-11-03T19:47:32.564Z,13.80
2022-11-03T19:50:04.344Z,13.61
2022-11-03T19:52:35.199Z,14.04
2022-11-03T19:55:03.335Z,13.19
2022-11-03T19:57:30.252Z,13.78
2022-11-03T19:59:59.035Z,13.63
2022-11-03T20:02:27.944Z,14.01
2022-11-03T20:04:54.627Z,14.37
2022-11-03T20:07:21.351Z,13.65
2022-11-03T20:09:48.475Z,13.79
2022-11-03T20:12:18.320Z,14.53
2022-11-03T20:14:45.081Z,14.11
2022-11-03T20:17:14.524Z,14.53
2022-11-03T20:19:41.169Z,14.17
2022-11-03T20:22:12.229Z,14.05
2022-11-03T20:24:39.689Z,14.58
2022-11-03T20:27:06.237Z,14.22
2022-11-03T20:29:34.887Z,14.43
2022-11-03T20:32:01.589Z,14.65
2022-11-03T20:34:28.343Z,14.42
2022-11-03T20:36:55.606Z,14.18
2022-11-03T20:39:22.676Z,14.00
2022-11-03T20:41:51.641Z,14.11
2022-11-03T20:44:18.197Z,13.85
2022-11-03T20:46:45.340Z,13.75
2022-11-03T20:49:12.182Z,13.46
2022-11-03T20:51:44.007Z,13.44
2022-11-03T20:54:21.230Z,13.07
2022-11-03T20:56:54.561Z,13.21
2022-11-03T20:59:24.614Z,13.13
2022-11-03T21:01:51.580Z,13.22
2022-11-03T21:04:20.052Z,13.17
2022-11-03T21:06:47.393Z,12.85
2022-11-03T21:09:15.963Z,13.18
2022-11-03T21:11:43.547Z,13.60
2022-11-03T21:14:21.694Z,13.39
2022-11-03T21:17:06.831Z,13.15
2022-11-03T21:19:52.419Z,13.74
2022-11-03T21:22:53.337Z,13.62
2022-11-03T21:25:22.368Z,13.27
2022-11-03T21:27:49.721Z,13.53
2022-11-03T21:30:17.074Z,13.83
2022-11-03T21:32:43.665Z,13.59
2022-11-03T21:35:14.762Z,13.81
2022-11-03T21:37:41.335Z,13.74
2022-11-03T21:40:08.530Z,13.64
2022-11-03T21:42:53.772Z,13.55
2022-11-03T21:45:20.371Z,14.08
2022-11-03T21:48:11.851Z,13.68
2022-11-03T21:50:39.966Z,13.49
2022-11-03T21:53:07.227Z,14.05
2022-11-03T21:55:34.192Z,14.05
2022-11-03T21:58:02.121Z,13.85
2022-11-03T22:00:28.794Z,13.90
2022-11-03T22:02:55.677Z,13.73
2022-11-03T22:05:22.147Z,14.01
2022-11-03T22:07:48.673Z,13.94
2022-11-03T22:10:15.361Z,13.37
2022-11-03T22:12:41.834Z,13.29
2022-11-03T22:15:27.454Z,13.46
2022-11-03T22:18:00.471Z,13.67
2022-11-03T22:20:45.523Z,13.46
2022-11-03T22:23:32.808Z,13.81
2022-11-03T22:26:19.495Z,13.96
2022-11-03T22:28:45.992Z,13.63
2022-11-03T22:31:31.195Z,13.39
2022-11-03T22:34:16.026Z,13.61
2022-11-03T22:36:42.536Z,13.57
2022-11-03T22:39:27.591Z,13.35
2022-11-03T22:42:12.739Z,13.43
2022-11-03T22:44:57.770Z,13.36
2022-11-03T22:47:24.495Z,13.42
2022-11-03T22:49:51.316Z,13.64
2022-11-03T22:52:17.835Z,13.44
2022-11-03T22:54:44.295Z,13.47
2022-11-03T22:57:11.438Z,13.48
2022-11-03T22:59:37.982Z,13.73
2022-11-03T23:02:04.542Z,13.86
2022-11-03T23:04:31.210Z,13.91
2022-11-03T23:06:57.728Z,14.11
2022-11-03T23:09:24.227Z,14.20
2022-11-03T23:11:50.754Z,14.56
2022-11-03T23:14:17.306Z,14.75
2022-11-03T23:16:44.866Z,14.67
2022-11-03T23:19:31.927Z,14.32
2022-11-03T23:21:58.519Z,14.14
2022-11-03T23:24:45.375Z,14.32
2022-11-03T23:27:13.245Z,14.66
2022-11-03T23:29:39.929Z,14.47
2022-11-03T23:32:06.851Z,14.57
2022-11-03T23:34:35.162Z,14.33
2022-11-03T23:37:02.068Z,14.94
2022-11-03T23:39:28.616Z,13.83
2022-11-03T23:41:55.133Z,14.57
2022-11-03T23:44:21.623Z,14.14
2022-11-03T23:47:06.719Z,14.15
2022-11-03T23:49:33.242Z,13.94
2022-11-03T23:51:59.920Z,14.15
2022-11-03T23:54:27.317Z,13.49
2022-11-03T23:57:12.861Z,13.57
2022-11-03T23:59:39.642Z,13.33
